Time;durP1;ratioP1;P1;durP2;ratioP2;P2;SDS_P1;SDS_P2;PMS_P1;PMS_P2;Temp;Humidity;BMP_temperature;BMP_pressure;BME280_temperature;BME280_humidity;BME280_pressure;Samples;Min_cycle;Max_cycle;Signal;HPM_P1;HPM_P2
2024/01/19 00:00:45;;;;;;;;;;;;;;;25.99;36.82;93472.28;4983781;28;7080;-36
2024/01/19 00:03:27;;;;;;;;;;;;;;;25.99;36.72;93482.59;4990751;28;7095;-36
2024/01/19 00:06:13;;;;;;;;;;;;;;;25.99;37.14;93490.84;5060243;28;7328;-36
2024/01/19 00:08:40;;;;;;;;;;;;;;;25.99;37.15;93488.81;5062265;28;7181;-36
2024/01/19 00:11:13;;;;;;;;;;;;;;;25.99;37.21;93493.59;5077362;28;7277;-39
2024/01/19 00:13:45;;;;;;;;;;;;;;;25.98;36.88;93506.63;5055217;28;7473;-39
2024/01/19 00:16:26;;;;;;;;;;;;;;;25.99;36.98;93502.59;5053592;28;8788;-39
2024/01/19 00:19:11;;;;;;;;;;;;;;;26.01;37.44;93508.31;5052698;28;9100;-57
2024/01/19 00:21:53;;;;;;;;;;;;;;;26.01;37.12;93516.56;5056039;28;7182;-39
2024/01/19 00:24:39;;;;;;;;;;;;;;;26.05;37.30;93519.03;5058021;28;8826;-39
2024/01/19 00:27:23;;;;;;;;;;;;;;;26.05;36.59;93525.28;5042610;28;9125;-39
2024/01/19 00:30:07;;;;;;;;;;;;;;;26.04;37.09;93526.53;5039982;28;6935;-39
2024/01/19 00:33:05;;;;;;;;;;;;;;;26.05;37.41;93539.06;5043346;28;8776;-38
2024/01/19 00:36:09;;;;;;;;;;;;;;;26.07;36.75;93557.81;5029852;28;9202;-39
2024/01/19 00:38:37;;;;;;;;;;;;;;;26.07;36.47;93561.31;5028548;28;9116;-40
2024/01/19 00:41:05;;;;;;;;;;;;;;;26.06;36.93;93570.09;5015464;28;7180;-39
2024/01/19 00:43:33;;;;;;;;;;;;;;;26.05;36.70;93565.88;5030214;28;7244;-40
2024/01/19 00:46:30;;;;;;;;;;;;;;;26.03;36.48;93565.66;5016832;28;9126;-39
2024/01/19 00:48:59;;;;;;;;;;;;;;;26.01;36.95;93565.47;4921417;29;7469;-39
2024/01/19 00:51:26;;;;;;;;;;;;;;;26.02;36.60;93570.44;4921934;29;6852;-39
2024/01/19 00:53:55;;;;;;;;;;;;;;;26.00;37.38;93583.25;4936822;29;9021;-39
2024/01/19 00:56:35;;;;;;;;;;;;;;;26.04;36.54;93595.44;4938149;28;8122;-39
2024/01/19 00:59:12;;;;;;;;;;;;;;;26.05;36.75;93591.41;4951980;28;7286;-38
2024/01/19 01:01:51;;;;;;;;;;;;;;;26.06;36.47;93609.41;4931175;29;9055;-39
2024/01/19 01:04:30;;;;;;;;;;;;;;;26.00;36.87;93606.03;4936834;29;7315;-39
2024/01/19 01:06:57;;;;;;;;;;;;;;;26.01;36.70;93618.53;4935600;29;9116;-40
2024/01/19 01:09:25;;;;;;;;;;;;;;;26.05;37.02;93618.22;4934427;29;8771;-40
2024/01/19 01:11:52;;;;;;;;;;;;;;;26.03;36.09;93615.97;4946651;28;9079;-41
2024/01/19 01:14:31;;;;;;;;;;;;;;;26.03;37.05;93629.75;4942192;28;8211;-40
2024/01/19 01:17:06;;;;;;;;;;;;;;;26.06;37.14;93644.50;4956896;28;6977;-38
2024/01/19 01:19:57;;;;;;;;;;;;;;;26.05;36.94;93635.50;4958744;28;7037;-39
2024/01/19 01:22:39;;;;;;;;;;;;;;;26.00;36.48;93630.84;4958323;28;7268;-39
2024/01/19 01:25:10;;;;;;;;;;;;;;;26.05;36.87;93640.28;5000322;28;7009;-39
2024/01/19 01:27:44;;;;;;;;;;;;;;;26.03;36.70;93654.56;5078535;28;7505;-39
2024/01/19 01:30:11;;;;;;;;;;;;;;;26.03;37.20;93660.06;5032475;28;7840;-39
2024/01/19 01:32:39;;;;;;;;;;;;;;;26.02;37.16;93653.09;5054325;28;7055;-39
2024/01/19 01:35:28;;;;;;;;;;;;;;;26.03;36.52;93665.59;5037856;28;7020;-40
2024/01/19 01:37:54;;;;;;;;;;;;;;;26.01;36.88;93668.13;5067944;28;7444;-39
2024/01/19 01:40:20;;;;;;;;;;;;;;;26.02;36.77;93669.63;5062153;28;6972;-41
2024/01/19 01:42:48;;;;;;;;;;;;;;;25.99;36.87;93659.66;5054389;28;9125;-38
2024/01/19 01:45:14;;;;;;;;;;;;;;;26.03;36.56;93662.84;5054221;28;9495;-39
2024/01/19 01:47:45;;;;;;;;;;;;;;;26.03;36.45;93665.59;5084968;28;9100;-39
2024/01/19 01:50:11;;;;;;;;;;;;;;;26.00;36.81;93680.44;5038374;28;9206;-38
2024/01/19 01:52:37;;;;;;;;;;;;;;;25.99;36.98;93681.69;5056972;28;7175;-39
2024/01/19 01:55:05;;;;;;;;;;;;;;;25.96;36.42;93684.78;5046699;28;9225;-40
2024/01/19 01:57:34;;;;;;;;;;;;;;;25.96;36.31;93684.78;5043848;28;9510;-39
2024/01/19 02:00:04;;;;;;;;;;;;;;;25.95;36.56;93686.03;5060123;28;7235;-39
2024/01/19 02:02:37;;;;;;;;;;;;;;;25.96;36.73;93679.28;5043193;28;9125;-39
2024/01/19 02:05:05;;;;;;;;;;;;;;;25.91;36.72;93675.34;5036612;28;7142;-38
2024/01/19 02:07:35;;;;;;;;;;;;;;;25.88;36.50;93684.66;5071956;28;7384;-39
2024/01/19 02:10:35;;;;;;;;;;;;;;;25.92;37.16;93693.38;5054830;28;7341;-39
2024/01/19 02:13:10;;;;;;;;;;;;;;;25.90;36.76;93693.13;5057264;28;7021;-39
2024/01/19 02:15:39;;;;;;;;;;;;;;;25.90;37.16;93701.41;5065075;28;7840;-38
2024/01/19 02:18:31;;;;;;;;;;;;;;;25.93;36.74;93707.88;5048315;28;7219;-39
2024/01/19 02:21:00;;;;;;;;;;;;;;;25.89;36.78;93710.97;4968276;28;7613;-39
2024/01/19 02:23:31;;;;;;;;;;;;;;;25.92;36.50;93718.19;4970764;28;7054;-39
2024/01/19 02:25:59;;;;;;;;;;;;;;;25.91;36.41;93710.41;4964648;28;7324;-39
2024/01/19 02:28:39;;;;;;;;;;;;;;;25.90;36.86;93708.94;4975168;28;7288;-39
2024/01/19 02:31:07;;;;;;;;;;;;;;;25.88;37.29;93709.47;4979889;28;9070;-40
2024/01/19 02:34:18;;;;;;;;;;;;;;;25.91;36.36;93719.44;4977335;28;9427;-39
2024/01/19 02:36:54;;;;;;;;;;;;;;;25.88;37.28;93726.00;4966522;28;7691;-39
2024/01/19 02:39:55;;;;;;;;;;;;;;;25.88;36.87;93726.00;4976841;28;7400;-40
2024/01/19 02:42:21;;;;;;;;;;;;;;;25.90;37.16;93731.00;4939101;28;7275;-40
2024/01/19 02:44:47;;;;;;;;;;;;;;;25.87;36.58;93732.78;4938159;28;7067;-40
2024/01/19 02:47:16;;;;;;;;;;;;;;;25.88;36.33;93737.00;4955358;28;7203;-40
2024/01/19 02:49:44;;;;;;;;;;;;;;;25.87;36.86;93735.53;4937911;28;8762;-41
2024/01/19 02:52:33;;;;;;;;;;;;;;;25.93;36.38;93738.19;4948434;28;8772;-39
2024/01/19 02:54:59;;;;;;;;;;;;;;;25.90;36.79;93736.50;4948860;28;7220;-40
2024/01/19 02:57:55;;;;;;;;;;;;;;;25.90;36.21;93742.00;4962486;28;7243;-40
2024/01/19 03:00:30;;;;;;;;;;;;;;;25.88;36.15;93741.81;4917501;29;7052;-42
2024/01/19 03:03:05;;;;;;;;;;;;;;;25.83;36.31;93740.63;4935693;29;7468;-39
2024/01/19 03:05:49;;;;;;;;;;;;;;;25.90;36.20;93751.00;4921166;29;9182;-40
2024/01/19 03:08:24;;;;;;;;;;;;;;;25.90;36.40;93753.03;4917862;29;7246;-39
2024/01/19 03:10:58;;;;;;;;;;;;;;;25.91;36.12;93760.75;4924709;29;7237;-40
2024/01/19 03:13:35;;;;;;;;;;;;;;;25.91;36.55;93758.00;4919076;29;7097;-40
2024/01/19 03:16:14;;;;;;;;;;;;;;;25.93;36.66;93762.97;4907869;29;7446;-40
2024/01/19 03:18:41;;;;;;;;;;;;;;;25.92;36.32;93767.78;4927824;28;9022;-40
2024/01/19 03:21:10;;;;;;;;;;;;;;;25.93;36.12;93774.00;4954471;28;6981;-39
2024/01/19 03:27:13;;;;;;;;;;;;;;;25.91;36.22;93763.53;4951316;28;9384;-40
2024/01/19 03:29:39;;;;;;;;;;;;;;;25.91;36.71;93771.03;4955190;28;9143;-40
2024/01/19 03:32:14;;;;;;;;;;;;;;;25.87;36.46;93776.88;4953484;28;7505;-40
2024/01/19 03:34:50;;;;;;;;;;;;;;;25.88;37.02;93777.63;4950611;28;7867;-40
2024/01/19 03:37:17;;;;;;;;;;;;;;;25.84;36.61;93774.41;4976297;28;7232;-40
2024/01/19 03:39:53;;;;;;;;;;;;;;;25.90;36.08;93777.84;5028717;28;7262;-41
2024/01/19 03:42:21;;;;;;;;;;;;;;;25.88;36.42;93781.09;4999708;28;7330;-39
2024/01/19 03:44:47;;;;;;;;;;;;;;;25.84;36.97;93779.91;5024038;28;7236;-40
2024/01/19 03:47:37;;;;;;;;;;;;;;;25.84;37.04;93791.69;5015041;28;8759;-42
2024/01/19 03:50:40;;;;;;;;;;;;;;;25.86;36.90;93783.63;5011793;28;7278;-39
2024/01/19 03:53:07;;;;;;;;;;;;;;;25.88;36.42;93786.59;5011648;28;7573;-39
2024/01/19 03:55:48;;;;;;;;;;;;;;;25.87;36.62;93790.66;5012303;28;7240;-39
2024/01/19 03:58:47;;;;;;;;;;;;;;;25.88;36.10;93794.88;5001172;28;9088;-39
2024/01/19 04:01:44;;;;;;;;;;;;;;;25.87;36.27;93793.41;4973054;28;9211;-39
2024/01/19 04:04:23;;;;;;;;;;;;;;;25.86;36.15;93791.91;4917754;29;7239;-38
2024/01/19 04:07:09;;;;;;;;;;;;;;;25.85;36.57;93790.44;4899317;29;9253;-38
2024/01/19 04:09:50;;;;;;;;;;;;;;;25.80;36.75;93788.50;4899630;29;7002;-39
2024/01/19 04:12:17;;;;;;;;;;;;;;;25.78;36.01;93787.53;4908600;29;7333;-39
2024/01/19 04:14:53;;;;;;;;;;;;;;;25.77;36.58;93797.84;4902596;29;7286;-38
2024/01/19 04:17:27;;;;;;;;;;;;;;;25.78;36.56;93793.81;4911619;29;7186;-40
2024/01/19 04:19:56;;;;;;;;;;;;;;;25.82;36.20;93804.50;4900327;29;8805;-40
2024/01/19 04:22:38;;;;;;;;;;;;;;;25.81;35.97;93809.28;4895755;29;7556;-38
2024/01/19 04:25:05;;;;;;;;;;;;;;;25.81;36.00;93806.53;4912335;29;7126;-39
2024/01/19 04:28:02;;;;;;;;;;;;;;;25.84;36.14;93807.47;4899593;29;7278;-39
2024/01/19 04:30:30;;;;;;;;;;;;;;;25.86;36.88;93807.72;4893678;29;7239;-39
2024/01/19 04:33:05;;;;;;;;;;;;;;;25.83;36.71;93806.75;4892847;29;7084;-39
2024/01/19 04:35:31;;;;;;;;;;;;;;;25.84;36.75;93819.22;4892722;29;7137;-39
2024/01/19 04:37:58;;;;;;;;;;;;;;;25.82;36.41;93816.25;4876500;29;7046;-38
2024/01/19 04:40:24;;;;;;;;;;;;;;;25.86;36.57;93821.47;4915816;28;7263;-41
2024/01/19 04:42:50;;;;;;;;;;;;;;;25.90;36.31;93830.91;4963023;28;8855;-39
2024/01/19 04:45:16;;;;;;;;;;;;;;;25.94;36.65;93822.34;4991378;28;7042;-39
2024/01/19 04:47:42;;;;;;;;;;;;;;;25.90;36.08;93822.63;4984826;28;7841;-40
2024/01/19 04:50:17;;;;;;;;;;;;;;;25.94;36.26;93830.59;4966512;28;9298;-39
2024/01/19 04:52:43;;;;;;;;;;;;;;;25.96;36.26;93831.56;5001620;28;9473;-39
2024/01/19 04:55:20;;;;;;;;;;;;;;;25.98;35.97;93840.06;4992812;28;8749;-38
2024/01/19 04:57:56;;;;;;;;;;;;;;;25.97;36.61;93844.06;4960238;28;7216;-39
2024/01/19 05:00:34;;;;;;;;;;;;;;;25.95;36.34;93851.38;4957092;28;7852;-40
2024/01/19 05:03:03;;;;;;;;;;;;;;;25.97;36.14;93846.81;4950973;28;7249;-43
2024/01/19 05:05:38;;;;;;;;;;;;;;;25.99;36.42;93854.59;4957058;28;7277;-40
2024/01/19 05:08:11;;;;;;;;;;;;;;;25.99;35.71;93858.06;5052819;28;7321;-40
2024/01/19 05:10:39;;;;;;;;;;;;;;;25.99;36.18;93851.81;5045802;28;9055;-39
2024/01/19 05:13:06;;;;;;;;;;;;;;;26.02;36.55;93861.78;5039006;28;7178;-39
2024/01/19 05:15:32;;;;;;;;;;;;;;;25.98;35.67;93858.59;5059825;28;7061;-40
2024/01/19 05:18:06;;;;;;;;;;;;;;;26.00;35.68;93870.59;5041861;28;7272;-41
2024/01/19 05:20:32;;;;;;;;;;;;;;;25.99;36.30;93871.84;5034699;28;6982;-41
2024/01/19 05:23:00;;;;;;;;;;;;;;;25.96;35.93;93877.66;5063552;28;7383;-40
2024/01/19 05:25:30;;;;;;;;;;;;;;;25.96;35.32;93888.69;5056419;28;6975;-39
2024/01/19 05:27:59;;;;;;;;;;;;;;;25.96;35.53;93897.72;5056597;28;6991;-39
2024/01/19 05:30:32;;;;;;;;;;;;;;;25.95;36.03;93887.94;5055781;28;7233;-40
2024/01/19 05:33:01;;;;;;;;;;;;;;;25.96;36.06;93894.94;5041385;28;7185;-40
2024/01/19 05:35:57;;;;;;;;;;;;;;;25.94;36.11;93905.00;5055955;28;9494;-40
2024/01/19 05:38:32;;;;;;;;;;;;;;;25.93;36.32;93904.25;4983067;28;7237;-40
2024/01/19 05:41:01;;;;;;;;;;;;;;;25.95;35.83;93895.47;4984014;28;7219;-41
2024/01/19 05:43:27;;;;;;;;;;;;;;;25.97;36.12;93899.19;4978393;28;7062;-39
2024/01/19 05:45:55;;;;;;;;;;;;;;;25.95;36.49;93895.47;4985603;28;6974;-39
2024/01/19 05:48:57;;;;;;;;;;;;;;;25.92;35.67;93902.78;4959675;28;6903;-40
2024/01/19 05:51:25;;;;;;;;;;;;;;;25.93;36.56;93909.00;4929942;29;7254;-41
2024/01/19 05:53:51;;;;;;;;;;;;;;;25.93;36.29;93923.53;4928717;29;7186;-39
2024/01/19 05:56:19;;;;;;;;;;;;;;;25.96;36.62;93921.75;4925665;29;7261;-41
2024/01/19 05:59:05;;;;;;;;;;;;;;;25.98;36.00;93922.72;4917500;29;7247;-41
2024/01/19 06:01:33;;;;;;;;;;;;;;;25.97;36.53;93932.25;4941829;28;9107;-37
2024/01/19 06:04:38;;;;;;;;;;;;;;;25.94;36.36;93936.06;4933579;29;9210;-57
2024/01/19 06:07:13;;;;;;;;;;;;;;;25.91;36.65;93942.63;4871521;29;7009;-57
2024/01/19 06:09:42;;;;;;;;;;;;;;;25.98;36.28;93952.28;4870396;29;7227;-57
2024/01/19 06:12:08;;;;;;;;;;;;;;;25.98;36.13;93955.03;4873984;29;7352;-56
2024/01/19 06:14:37;;;;;;;;;;;;;;;25.99;36.21;93967.56;4868780;29;9073;-56
2024/01/19 06:17:04;;;;;;;;;;;;;;;26.00;36.65;93975.31;4877552;29;9091;-56
2024/01/19 06:19:30;;;;;;;;;;;;;;;26.03;36.80;93973.50;4887887;29;7306;-56
2024/01/19 06:22:06;;;;;;;;;;;;;;;26.04;39.75;93978.50;4894474;29;8694;-56
2024/01/19 06:25:01;;;;;;;;;;;;;;;26.11;45.31;93979.94;4890854;28;7229;-56
2024/01/19 06:27:27;;;;;;;;;;;;;;;26.14;46.42;93987.88;4988878;28;7239;-57
2024/01/19 06:30:31;;;;;;;;;;;;;;;26.20;48.48;93993.34;4966735;28;6856;-57
2024/01/19 06:32:59;;;;;;;;;;;;;;;26.23;47.62;93997.78;4972864;28;9062;-56
2024/01/19 06:35:35;;;;;;;;;;;;;;;26.26;45.19;93993.97;4977819;28;9677;-56
2024/01/19 06:38:04;;;;;;;;;;;;;;;26.22;41.44;93993.53;4973382;28;7239;-57
2024/01/19 06:40:32;;;;;;;;;;;;;;;26.14;40.44;93996.16;4992821;28;7588;-56
2024/01/19 06:43:00;;;;;;;;;;;;;;;26.10;40.21;94001.22;5035651;28;7054;-56
2024/01/19 06:45:29;;;;;;;;;;;;;;;26.05;38.32;94004.06;5052330;28;7320;-56
2024/01/19 06:47:59;;;;;;;;;;;;;;;26.00;37.77;94008.38;5052863;28;7228;-56
2024/01/19 06:50:42;;;;;;;;;;;;;;;25.95;36.88;94009.19;5054997;28;7439;-56
2024/01/19 06:53:17;;;;;;;;;;;;;;;25.93;36.75;94017.22;5060223;28;7296;-57
2024/01/19 06:56:08;;;;;;;;;;;;;;;25.96;37.05;94018.94;5066310;28;8726;-56
2024/01/19 06:58:34;;;;;;;;;;;;;;;25.97;37.12;94020.44;5039810;28;7029;-56
2024/01/19 07:01:10;;;;;;;;;;;;;;;25.96;36.41;94029.97;5039701;28;7300;-56
2024/01/19 07:03:55;;;;;;;;;;;;;;;25.96;35.93;94029.97;5035091;28;6994;-56
2024/01/19 07:06:36;;;;;;;;;;;;;;;25.93;35.80;94031.00;5051075;28;6855;-56
2024/01/19 07:09:12;;;;;;;;;;;;;;;25.90;35.68;94037.56;5041237;28;7076;-56
2024/01/19 07:11:45;;;;;;;;;;;;;;;25.91;35.85;94039.06;5062914;28;6985;-56
2024/01/19 07:14:31;;;;;;;;;;;;;;;25.92;34.14;94048.81;5044612;28;7634;-56
2024/01/19 07:17:25;;;;;;;;;;;;;;;25.93;33.70;94058.56;5049564;28;7238;-56
2024/01/19 07:19:59;;;;;;;;;;;;;;;25.94;34.14;94068.34;5049023;28;9127;-56
2024/01/19 07:22:33;;;;;;;;;;;;;;;25.93;33.83;94083.38;5074043;28;7333;-56
2024/01/19 07:25:05;;;;;;;;;;;;;;;25.92;33.84;94086.66;5058717;28;9090;-56
2024/01/19 07:27:35;;;;;;;;;;;;;;;25.92;34.55;94094.91;5055100;28;9075;-56
2024/01/19 07:30:02;;;;;;;;;;;;;;;25.92;34.29;94095.66;5069186;28;7263;-57
2024/01/19 07:32:48;;;;;;;;;;;;;;;25.95;33.69;94110.38;5042495;28;9149;-55
2024/01/19 07:35:47;;;;;;;;;;;;;;;25.95;33.59;94110.38;5049376;28;8172;-55
2024/01/19 07:38:22;;;;;;;;;;;;;;;25.93;33.86;94118.44;5004780;28;8752;-55
2024/01/19 07:40:48;;;;;;;;;;;;;;;25.89;34.34;94124.25;4981748;28;7454;-55
2024/01/19 07:43:14;;;;;;;;;;;;;;;25.93;33.59;94132.97;5003929;28;7129;-55
2024/01/19 07:46:06;;;;;;;;;;;;;;;25.93;33.48;94141.22;4983041;28;7260;-55
2024/01/19 07:49:01;;;;;;;;;;;;;;;25.94;34.59;94150.25;4993602;28;7232;-56
2024/01/19 07:52:08;;;;;;;;;;;;;;;25.96;33.76;94145.72;4961976;28;7510;-56
2024/01/19 07:54:43;;;;;;;;;;;;;;;25.96;34.08;94155.97;4953477;28;7146;-56
2024/01/19 07:57:13;;;;;;;;;;;;;;;25.94;34.08;94150.25;4953185;28;8840;-56
2024/01/19 07:59:48;;;;;;;;;;;;;;;25.95;34.12;94166.25;4941705;29;6860;-56
2024/01/19 08:02:14;;;;;;;;;;;;;;;25.96;34.17;94167.75;4951373;29;8808;-56
2024/01/19 08:04:55;;;;;;;;;;;;;;;25.96;34.15;94178.78;4950207;29;7093;-56
2024/01/19 08:07:26;;;;;;;;;;;;;;;25.96;34.52;94178.78;4943120;29;7323;-57
2024/01/19 08:10:11;;;;;;;;;;;;;;;25.99;34.50;94191.50;4950560;29;7096;-56
2024/01/19 08:12:41;;;;;;;;;;;;;;;25.95;33.89;94193.81;4953203;29;7350;-55
2024/01/19 08:15:08;;;;;;;;;;;;;;;26.00;34.47;94206.03;4997455;28;7271;-56
2024/01/19 08:17:35;;;;;;;;;;;;;;;25.99;34.11;94208.03;5011701;28;7052;-57
2024/01/19 08:20:12;;;;;;;;;;;;;;;26.00;34.11;94215.06;5010943;28;9113;-36
2024/01/19 08:22:49;;;;;;;;;;;;;;;26.01;34.74;94221.31;4998296;28;7035;-36
2024/01/19 08:25:24;;;;;;;;;;;;;;;26.02;34.50;94220.81;5014778;28;7361;-36
2024/01/19 08:27:55;;;;;;;;;;;;;;;26.01;34.62;94221.31;5024671;28;7241;-36
2024/01/19 08:30:27;;;;;;;;;;;;;;;26.05;34.20;94224.53;5065283;28;7344;-36
2024/01/19 08:33:12;;;;;;;;;;;;;;;26.02;34.37;94220.81;5041205;28;7679;-36
2024/01/19 08:35:40;;;;;;;;;;;;;;;26.03;34.38;94221.56;5068951;28;7239;-36
2024/01/19 08:38:06;;;;;;;;;;;;;;;26.02;34.04;94231.81;5051131;28;8887;-36
2024/01/19 08:40:32;;;;;;;;;;;;;;;26.04;34.08;94237.56;5057564;28;7039;-36
2024/01/19 08:42:58;;;;;;;;;;;;;;;26.06;33.84;94239.78;5051701;28;8973;-36
2024/01/19 08:45:28;;;;;;;;;;;;;;;26.06;34.13;94243.31;5044921;28;9393;-36
2024/01/19 08:48:02;;;;;;;;;;;;;;;26.03;34.67;94241.56;5037793;28;7505;-36
2024/01/19 08:51:00;;;;;;;;;;;;;;;26.05;34.80;94241.06;5063540;28;7502;-36
2024/01/19 08:53:44;;;;;;;;;;;;;;;25.98;35.00;94245.16;4995092;28;7272;-36
2024/01/19 08:56:10;;;;;;;;;;;;;;;25.97;34.44;94251.91;4995315;28;8739;-36
2024/01/19 08:58:39;;;;;;;;;;;;;;;26.06;35.09;94254.31;4976703;28;7966;-36
2024/01/19 09:01:05;;;;;;;;;;;;;;;26.04;34.80;94253.34;4977182;28;9075;-36
2024/01/19 09:03:31;;;;;;;;;;;;;;;26.06;33.92;94257.09;4969954;28;8572;-36
2024/01/19 09:05:57;;;;;;;;;;;;;;;26.08;33.86;94260.09;4978863;28;9121;-36
2024/01/19 09:08:23;;;;;;;;;;;;;;;26.07;33.95;94261.34;4976260;28;8918;-36
2024/01/19 09:10:49;;;;;;;;;;;;;;;26.08;33.93;94262.84;4973942;28;9180;-36
2024/01/19 09:13:37;;;;;;;;;;;;;;;26.11;34.33;94267.34;4978770;28;8928;-36
2024/01/19 09:16:06;;;;;;;;;;;;;;;26.11;34.25;94275.63;5001270;28;7323;-36
2024/01/19 09:18:34;;;;;;;;;;;;;;;26.14;33.73;94282.81;4994168;28;8776;-36
2024/01/19 09:21:00;;;;;;;;;;;;;;;26.12;34.33;94288.13;4980273;28;9570;-36
2024/01/19 09:23:36;;;;;;;;;;;;;;;26.11;34.45;94286.63;4979774;28;7274;-36
2024/01/19 09:26:40;;;;;;;;;;;;;;;26.15;33.82;94303.63;4978202;28;7423;-36
2024/01/19 09:29:17;;;;;;;;;;;;;;;26.10;34.36;94295.41;4955717;28;7368;-36
2024/01/19 09:32:02;;;;;;;;;;;;;;;26.14;34.28;94310.41;5008342;28;7209;-36
2024/01/19 09:34:29;;;;;;;;;;;;;;;26.15;34.28;94311.91;5002603;28;8778;-36
2024/01/19 09:37:13;;;;;;;;;;;;;;;26.14;34.83;94310.41;4988876;28;9073;-36
2024/01/19 09:39:50;;;;;;;;;;;;;;;26.17;34.19;94323.16;5010722;28;6939;-36
2024/01/19 09:42:33;;;;;;;;;;;;;;;26.20;34.64;94329.66;4996053;28;7309;-36
2024/01/19 09:45:04;;;;;;;;;;;;;;;26.20;34.89;94335.16;5004876;28;8444;-36
2024/01/19 09:47:36;;;;;;;;;;;;;;;26.22;34.39;94348.44;5002912;28;7278;-36
2024/01/19 09:50:10;;;;;;;;;;;;;;;26.19;34.75;94339.19;5008467;28;9057;-36
2024/01/19 09:53:01;;;;;;;;;;;;;;;26.25;34.83;94348.16;5000705;28;7701;-36
2024/01/19 09:55:29;;;;;;;;;;;;;;;26.26;34.44;94354.41;5002405;28;9425;-36
2024/01/19 09:58:06;;;;;;;;;;;;;;;26.26;34.95;94360.66;5000344;28;7172;-36
2024/01/19 10:00:40;;;;;;;;;;;;;;;26.24;35.21;94359.69;5040438;28;7252;-36
2024/01/19 10:03:18;;;;;;;;;;;;;;;26.26;35.32;94363.44;5052053;28;7201;-36
2024/01/19 10:06:17;;;;;;;;;;;;;;;26.27;35.24;94366.94;5059492;28;7657;-36
2024/01/19 10:08:43;;;;;;;;;;;;;;;26.27;35.02;94372.44;5013421;28;7305;-36
2024/01/19 10:11:10;;;;;;;;;;;;;;;26.28;35.03;94371.16;4991361;28;8823;-36
2024/01/19 10:13:36;;;;;;;;;;;;;;;26.31;35.29;94370.16;4969538;28;7241;-36
2024/01/19 10:16:03;;;;;;;;;;;;;;;26.31;34.91;94381.19;4985974;28;7255;-36
2024/01/19 10:18:29;;;;;;;;;;;;;;;26.32;34.75;94383.41;5000167;28;9088;-36
2024/01/19 10:20:55;;;;;;;;;;;;;;;26.34;35.37;94385.69;4994629;28;6985;-36
2024/01/19 10:23:43;;;;;;;;;;;;;;;26.35;34.86;94385.16;4991021;28;9107;-37
2024/01/19 10:26:18;;;;;;;;;;;;;;;26.36;35.52;94383.16;4989931;28;9180;-37
2024/01/19 10:28:44;;;;;;;;;;;;;;;26.38;34.97;94384.09;4982878;28;9079;-37
2024/01/19 10:31:23;;;;;;;;;;;;;;;26.40;35.46;94386.38;4981080;28;7062;-37
2024/01/19 10:33:50;;;;;;;;;;;;;;;26.39;35.32;94401.41;4987831;28;9305;-37
2024/01/19 10:36:18;;;;;;;;;;;;;;;26.37;34.91;94387.38;4993821;28;6944;-37
2024/01/19 10:38:46;;;;;;;;;;;;;;;26.37;35.11;94388.13;5009836;28;7254;-37
2024/01/19 10:41:17;;;;;;;;;;;;;;;26.37;35.58;94385.38;4991442;28;7219;-57
2024/01/19 10:43:43;;;;;;;;;;;;;;;26.39;35.10;94388.38;5009303;28;7655;-57
2024/01/19 10:46:20;;;;;;;;;;;;;;;26.36;35.64;94388.66;5061585;28;8925;-57
2024/01/19 10:48:50;;;;;;;;;;;;;;;26.40;35.11;94389.88;5050717;28;7087;-57
2024/01/19 10:51:20;;;;;;;;;;;;;;;26.38;35.88;94394.41;5030186;28;7096;-58
2024/01/19 10:53:59;;;;;;;;;;;;;;;26.38;35.51;94386.13;5065662;28;7250;-58
2024/01/19 10:56:39;;;;;;;;;;;;;;;26.43;35.10;94390.84;5040771;28;7346;-58
2024/01/19 10:59:19;;;;;;;;;;;;;;;26.39;35.94;94390.38;5057906;28;7279;-57
2024/01/19 11:01:58;;;;;;;;;;;;;;;26.42;35.35;94389.34;5048448;28;7002;-58
2024/01/19 11:04:28;;;;;;;;;;;;;;;26.41;35.49;94388.59;5059458;28;7395;-58
2024/01/19 11:06:54;;;;;;;;;;;;;;;26.45;35.44;94389.06;5050670;28;7282;-57
2024/01/19 11:09:31;;;;;;;;;;;;;;;26.46;35.79;94389.81;5051843;28;7238;-57
2024/01/19 11:12:25;;;;;;;;;;;;;;;26.45;36.24;94394.56;5056898;28;9032;-58
2024/01/19 11:15:01;;;;;;;;;;;;;;;26.40;36.51;94392.63;5000715;28;7437;-58
2024/01/19 11:17:28;;;;;;;;;;;;;;;26.42;36.55;94400.38;4967429;28;9180;-57
2024/01/19 11:19:55;;;;;;;;;;;;;;;26.40;36.17;94387.13;4977170;28;7261;-58
2024/01/19 11:22:22;;;;;;;;;;;;;;;26.40;36.29;94386.38;4980880;28;9241;-58
2024/01/19 11:25:05;;;;;;;;;;;;;;;26.40;36.65;94389.13;4992420;28;7983;-58
2024/01/19 11:27:47;;;;;;;;;;;;;;;26.40;36.12;94381.59;4995272;28;7465;-58
2024/01/19 11:30:47;;;;;;;;;;;;;;;26.48;35.97;94381.75;4998000;28;7137;-58
2024/01/19 11:33:22;;;;;;;;;;;;;;;26.44;36.38;94382.06;4993721;28;8790;-57
2024/01/19 11:36:07;;;;;;;;;;;;;;;26.50;35.87;94384.75;4981116;28;7816;-58
2024/01/19 11:38:45;;;;;;;;;;;;;;;26.48;35.96;94381.75;4997454;28;7048;-57
2024/01/19 11:41:34;;;;;;;;;;;;;;;26.50;36.81;94379.22;4998416;28;9061;-57
2024/01/19 11:44:04;;;;;;;;;;;;;;;26.49;36.53;94383.28;4938407;28;9160;-58
2024/01/19 11:46:54;;;;;;;;;;;;;;;26.51;36.25;94381.47;4957237;28;8742;-57
2024/01/19 11:50:05;;;;;;;;;;;;;;;26.55;36.55;94370.91;4960372;28;7255;-40
2024/01/19 11:52:45;;;;;;;;;;;;;;;26.53;36.24;94369.94;4986147;28;8732;-41
2024/01/19 11:55:39;;;;;;;;;;;;;;;26.57;35.81;94370.38;5017518;28;7288;-41
2024/01/19 11:58:32;;;;;;;;;;;;;;;26.58;35.90;94375.38;5008024;28;8751;-41
2024/01/19 12:01:14;;;;;;;;;;;;;;;26.59;35.87;94368.63;5006377;28;8223;-41
2024/01/19 12:03:56;;;;;;;;;;;;;;;26.58;35.84;94375.38;5011322;28;7214;-40
2024/01/19 12:06:40;;;;;;;;;;;;;;;26.64;36.31;94372.56;5014358;28;8992;-41
2024/01/19 12:09:24;;;;;;;;;;;;;;;26.64;36.47;94380.84;4995152;28;7287;-41
2024/01/19 12:12:00;;;;;;;;;;;;;;;26.65;36.00;94365.78;5011059;28;7080;-41
2024/01/19 12:14:42;;;;;;;;;;;;;;;26.68;36.19;94370.28;5012019;28;9444;-40
2024/01/19 12:17:59;;;;;;;;;;;;;;;26.73;35.61;94377.78;5013276;28;7349;-42
2024/01/19 12:20:25;;;;;;;;;;;;;;;26.74;35.28;94368.97;4950321;28;7740;-42
2024/01/19 12:23:22;;;;;;;;;;;;;;;26.72;35.24;94377.00;4972915;28;9106;-43
2024/01/19 12:26:36;;;;;;;;;;;;;;;26.75;35.17;94366.97;4982564;28;7066;-40
2024/01/19 12:29:39;;;;;;;;;;;;;;;26.75;35.19;94367.69;4934408;29;7206;-42
2024/01/19 12:32:18;;;;;;;;;;;;;;;26.73;35.48;94369.50;4927803;29;8225;-41
2024/01/19 12:35:05;;;;;;;;;;;;;;;26.73;35.30;94361.22;4942257;29;7420;-43
2024/01/19 12:37:31;;;;;;;;;;;;;;;26.75;35.47;94364.94;4947527;28;9392;-41
2024/01/19 12:40:15;;;;;;;;;;;;;;;26.75;35.98;94361.44;4950277;28;7768;-40
2024/01/19 12:42:41;;;;;;;;;;;;;;;26.77;35.36;94372.72;4932316;29;9108;-41
2024/01/19 12:45:15;;;;;;;;;;;;;;;26.75;35.35;94362.19;4925446;29;9714;-41
2024/01/19 12:48:09;;;;;;;;;;;;;;;26.80;35.74;94364.13;4933627;29;9094;-41
2024/01/19 12:51:24;;;;;;;;;;;;;;;26.85;34.99;94368.09;4950111;29;7038;-41
2024/01/19 12:54:22;;;;;;;;;;;;;;;26.88;35.34;94369.84;4894071;29;7102;-41
2024/01/19 12:57:20;;;;;;;;;;;;;;;26.90;35.38;94356.97;4957631;28;7249;-43
2024/01/19 13:03:22;;;;;;;;;;;;;;;26.94;35.38;94355.94;4954602;28;6991;-42
2024/01/19 13:05:48;;;;;;;;;;;;;;;26.91;35.60;94352.22;4965123;28;8419;-41
2024/01/19 13:08:18;;;;;;;;;;;;;;;26.94;35.41;94353.19;4967077;28;7020;-43
2024/01/19 13:10:47;;;;;;;;;;;;;;;26.94;35.58;94362.22;5004280;28;7066;-42
2024/01/19 13:13:17;;;;;;;;;;;;;;;26.97;35.70;94361.16;4977559;28;9941;-42
2024/01/19 13:15:44;;;;;;;;;;;;;;;27.02;35.67;94363.13;4984306;28;6989;-42
2024/01/19 13:18:29;;;;;;;;;;;;;;;27.03;35.33;94364.63;4985422;28;8605;-42
2024/01/19 13:21:20;;;;;;;;;;;;;;;27.07;35.58;94367.09;4959531;28;7579;-43
2024/01/19 13:24:00;;;;;;;;;;;;;;;27.07;35.15;94359.56;4993666;28;9144;-43
2024/01/19 13:26:30;;;;;;;;;;;;;;;27.08;35.14;94371.34;4972112;28;7369;-43
2024/01/19 13:29:08;;;;;;;;;;;;;;;27.06;35.74;94369.09;4987305;28;7261;-42
2024/01/19 13:31:52;;;;;;;;;;;;;;;27.06;35.75;94362.81;5070529;28;7004;-42
2024/01/19 13:34:29;;;;;;;;;;;;;;;27.10;35.33;94361.25;5069272;28;8730;-43
2024/01/19 13:36:57;;;;;;;;;;;;;;;27.12;35.56;94369.03;5052059;28;7237;-42
2024/01/19 13:39:27;;;;;;;;;;;;;;;27.15;35.48;94365.97;5064427;28;7378;-42
2024/01/19 13:41:53;;;;;;;;;;;;;;;27.17;35.79;94366.19;5056836;28;9068;-44
2024/01/19 13:44:19;;;;;;;;;;;;;;;27.17;35.62;94376.47;5036868;28;8762;-44
2024/01/19 13:46:45;;;;;;;;;;;;;;;27.20;35.62;94367.91;5065841;28;6881;-42
2024/01/19 13:49:11;;;;;;;;;;;;;;;27.21;35.57;94369.41;5054433;28;9004;-42
2024/01/19 13:51:46;;;;;;;;;;;;;;;27.25;35.85;94371.88;5057643;28;7062;-42